Time;durP1;ratioP1;P1;durP2;ratioP2;P2;SDS_P1;SDS_P2;PMS_P1;PMS_P2;Temp;Humidity;BMP_temperature;BMP_pressure;BME280_temperature;BME280_humidity;BME280_pressure;Samples;Min_cycle;Max_cycle;Signal;HPM_P1;HPM_P2
2022/02/21 00:00:14;;;;;;;5.00;2.70;;;6.60;99.90;;;;;;4441282;32;20190;-79
2022/02/21 00:02:44;;;;;;;4.17;2.40;;;6.60;99.90;;;;;;4439728;32;20209;-79
2022/02/21 00:05:14;;;;;;;5.03;2.80;;;6.70;99.90;;;;;;4442554;32;20219;-79
2022/02/21 00:07:42;;;;;;;5.30;2.83;;;6.70;99.90;;;;;;4439958;32;20182;-79
2022/02/21 00:10:11;;;;;;;4.70;3.03;;;6.70;99.90;;;;;;4441397;32;20514;-78
2022/02/21 00:12:39;;;;;;;4.53;2.70;;;6.80;99.90;;;;;;4439453;32;20282;-78
2022/02/21 00:15:08;;;;;;;4.20;2.70;;;6.80;99.90;;;;;;4440996;32;20154;-78
2022/02/21 00:17:35;;;;;;;5.23;2.70;;;6.80;99.90;;;;;;4441650;32;20153;-78
2022/02/21 00:20:03;;;;;;;3.23;2.47;;;6.80;99.90;;;;;;4439248;32;20174;-78
2022/02/21 00:22:30;;;;;;;4.87;2.50;;;6.80;99.90;;;;;;4441233;32;20250;-78
2022/02/21 00:24:57;;;;;;;6.37;2.80;;;6.80;99.90;;;;;;4441204;32;20438;-78
2022/02/21 00:27:24;;;;;;;4.63;2.53;;;6.80;99.90;;;;;;4442109;32;20536;-78
2022/02/21 00:29:51;;;;;;;4.63;2.50;;;6.90;99.90;;;;;;4441842;32;20452;-78
2022/02/21 00:32:18;;;;;;;5.03;2.80;;;6.80;99.90;;;;;;4450984;32;20234;-78
2022/02/21 00:34:44;;;;;;;3.73;2.60;;;6.80;99.90;;;;;;4441155;32;20173;-78
2022/02/21 00:37:11;;;;;;;4.07;2.33;;;6.90;99.90;;;;;;4441630;32;20212;-78
2022/02/21 00:39:38;;;;;;;5.27;2.60;;;6.80;99.90;;;;;;4446979;32;20171;-78
2022/02/21 00:42:06;;;;;;;6.13;2.47;;;6.80;99.90;;;;;;4439468;32;20165;-78
2022/02/21 00:44:33;;;;;;;3.50;2.33;;;6.90;99.90;;;;;;4438796;32;20192;-78
2022/02/21 00:47:00;;;;;;;3.20;2.17;;;6.90;99.90;;;;;;4439006;32;20227;-78
2022/02/21 00:49:27;;;;;;;3.40;2.20;;;6.90;99.90;;;;;;4440277;32;20539;-78
2022/02/21 00:51:54;;;;;;;4.37;2.40;;;7.00;99.90;;;;;;4439855;32;20174;-79
2022/02/21 00:54:21;;;;;;;4.73;2.30;;;7.00;99.90;;;;;;4440289;32;20146;-79
2022/02/21 00:56:48;;;;;;;4.93;2.23;;;7.10;99.90;;;;;;4438945;32;20550;-78
2022/02/21 00:59:15;;;;;;;4.97;2.30;;;7.10;99.90;;;;;;4438948;32;20420;-79
2022/02/21 01:01:41;;;;;;;4.13;2.30;;;7.20;99.90;;;;;;4439610;32;20199;-78
2022/02/21 01:04:08;;;;;;;3.30;2.00;;;7.20;99.90;;;;;;4441394;32;20140;-78
2022/02/21 01:06:35;;;;;;;4.33;2.23;;;7.20;99.90;;;;;;4440129;32;20152;-78
2022/02/21 01:09:03;;;;;;;3.07;2.00;;;7.30;99.90;;;;;;4440311;32;20187;-78
2022/02/21 01:11:30;;;;;;;4.07;2.20;;;7.20;99.90;;;;;;4441670;32;20142;-78
2022/02/21 01:14:01;;;;;;;4.17;2.30;;;7.20;99.90;;;;;;4438741;32;20235;-78
2022/02/21 01:16:29;;;;;;;3.47;2.40;;;7.20;99.90;;;;;;4439935;32;20219;-79
2022/02/21 01:18:56;;;;;;;3.73;2.20;;;7.20;99.90;;;;;;4441577;32;20226;-79
2022/02/21 01:21:22;;;;;;;3.73;2.20;;;7.20;99.90;;;;;;4439001;32;20209;-79
2022/02/21 01:23:49;;;;;;;3.37;2.30;;;7.20;99.90;;;;;;4438950;32;20189;-79
2022/02/21 01:26:16;;;;;;;4.07;2.20;;;7.20;99.90;;;;;;4440477;32;20140;-78
2022/02/21 01:28:43;;;;;;;5.43;2.40;;;7.20;99.90;;;;;;4439250;32;20189;-79
2022/02/21 01:31:11;;;;;;;3.70;2.23;;;7.20;99.90;;;;;;4439460;32;20186;-79
2022/02/21 01:33:38;;;;;;;4.93;2.40;;;7.20;99.90;;;;;;4440908;32;20214;-78
2022/02/21 01:36:05;;;;;;;5.13;2.53;;;7.20;99.90;;;;;;4438048;32;20176;-78
2022/02/21 01:38:32;;;;;;;3.00;2.30;;;7.20;99.90;;;;;;4438063;32;20159;-78
2022/02/21 01:40:59;;;;;;;5.47;2.30;;;7.10;99.90;;;;;;4438611;32;20177;-78
2022/02/21 01:43:26;;;;;;;4.77;2.33;;;7.20;99.90;;;;;;4439616;32;20193;-78
2022/02/21 01:45:53;;;;;;;5.73;2.30;;;7.10;99.90;;;;;;4439117;32;20171;-78
2022/02/21 01:48:20;;;;;;;4.13;2.50;;;7.10;99.90;;;;;;4440519;32;20162;-78
2022/02/21 01:50:47;;;;;;;5.20;2.37;;;7.10;99.90;;;;;;4439780;32;20185;-78
2022/02/21 01:53:14;;;;;;;6.60;2.77;;;6.90;99.90;;;;;;4439517;32;20153;-77
2022/02/21 01:55:43;;;;;;;4.30;2.57;;;7.00;99.90;;;;;;4439417;32;20167;-78
2022/02/21 01:58:11;;;;;;;4.10;2.30;;;6.90;99.90;;;;;;4438422;32;20167;-78
2022/02/21 02:00:38;;;;;;;4.23;2.40;;;6.90;99.90;;;;;;4438958;32;20577;-78
2022/02/21 02:03:05;;;;;;;4.50;2.57;;;6.90;99.90;;;;;;4439567;32;20229;-78
2022/02/21 02:05:32;;;;;;;4.23;2.60;;;6.90;99.90;;;;;;4438526;32;20177;-78
2022/02/21 02:08:01;;;;;;;5.00;2.20;;;6.90;99.90;;;;;;4440556;32;20445;-78
2022/02/21 02:10:29;;;;;;;3.70;2.23;;;6.90;99.90;;;;;;4438423;32;20217;-78
2022/02/21 02:12:56;;;;;;;4.10;2.63;;;6.90;99.90;;;;;;4438371;32;20194;-78
2022/02/21 02:15:24;;;;;;;3.57;2.43;;;6.90;99.90;;;;;;4439297;32;20156;-78
2022/02/21 02:17:51;;;;;;;2.90;2.20;;;6.80;99.90;;;;;;4439658;32;20188;-78
2022/02/21 02:20:18;;;;;;;4.47;2.60;;;6.80;99.90;;;;;;4439438;32;20606;-78
2022/02/21 02:22:46;;;;;;;3.63;2.37;;;6.80;99.90;;;;;;4440852;32;20140;-78
2022/02/21 02:25:13;;;;;;;3.50;2.37;;;6.70;99.90;;;;;;4439001;32;20175;-78
2022/02/21 02:27:41;;;;;;;4.53;2.30;;;6.70;99.90;;;;;;4439064;32;20170;-78
2022/02/21 02:30:08;;;;;;;2.57;2.30;;;6.70;99.90;;;;;;4439143;32;20247;-78
2022/02/21 02:32:35;;;;;;;5.50;2.33;;;6.60;99.90;;;;;;4437932;32;20201;-77
2022/02/21 02:35:03;;;;;;;3.20;2.30;;;6.60;99.90;;;;;;4438837;32;20177;-77
2022/02/21 02:37:30;;;;;;;4.43;2.47;;;6.60;99.90;;;;;;4442614;32;20174;-77
2022/02/21 02:39:58;;;;;;;4.63;2.70;;;6.60;99.90;;;;;;4442507;32;20181;-77
2022/02/21 02:42:25;;;;;;;4.80;2.60;;;6.60;99.90;;;;;;4440497;32;20603;-77
2022/02/21 02:44:52;;;;;;;4.70;2.67;;;6.50;99.90;;;;;;4440621;32;20481;-77
2022/02/21 02:47:18;;;;;;;3.40;2.13;;;6.50;99.90;;;;;;4442103;32;20223;-77
2022/02/21 02:49:45;;;;;;;3.97;2.40;;;6.40;99.90;;;;;;4442393;32;20142;-77
2022/02/21 02:52:13;;;;;;;3.60;2.20;;;6.40;99.90;;;;;;4442934;32;20469;-77
2022/02/21 02:54:39;;;;;;;3.53;2.33;;;6.40;99.90;;;;;;4441663;32;20410;-77
2022/02/21 02:57:07;;;;;;;4.13;2.23;;;6.40;99.90;;;;;;4441048;32;20218;-77
2022/02/21 02:59:34;;;;;;;3.17;2.10;;;6.30;99.90;;;;;;4441548;32;20505;-77
2022/02/21 03:02:01;;;;;;;5.37;3.03;;;6.30;99.90;;;;;;4441660;32;20158;-77
2022/02/21 03:04:28;;;;;;;4.20;2.40;;;6.30;99.90;;;;;;4442002;32;20241;-77
2022/02/21 03:06:58;;;;;;;3.83;2.50;;;6.30;99.90;;;;;;4442102;32;20205;-77
2022/02/21 03:09:26;;;;;;;3.57;2.27;;;6.30;99.90;;;;;;4440986;32;20178;-77
2022/02/21 03:11:53;;;;;;;3.47;2.17;;;6.30;99.90;;;;;;4440475;32;20174;-77
2022/02/21 03:14:21;;;;;;;3.80;2.40;;;6.30;99.90;;;;;;4440471;32;20246;-77
2022/02/21 03:16:48;;;;;;;4.17;2.20;;;6.30;99.90;;;;;;4440632;32;20228;-77
2022/02/21 03:19:15;;;;;;;3.43;2.40;;;6.30;99.90;;;;;;4440877;32;20168;-77
2022/02/21 03:21:42;;;;;;;4.67;2.53;;;6.30;99.90;;;;;;4441120;32;20655;-77
2022/02/21 03:24:08;;;;;;;4.53;2.17;;;6.30;99.90;;;;;;4440995;32;20224;-77
2022/02/21 03:26:35;;;;;;;3.07;2.00;;;6.30;99.90;;;;;;4442649;32;20137;-77
2022/02/21 03:29:03;;;;;;;3.20;2.20;;;6.30;99.90;;;;;;4441142;32;20169;-77
2022/02/21 03:31:30;;;;;;;3.60;2.20;;;6.30;99.90;;;;;;4440986;32;20191;-77
2022/02/21 03:33:57;;;;;;;3.93;2.00;;;6.20;99.90;;;;;;4441921;32;20186;-77
2022/02/21 03:36:24;;;;;;;3.70;2.20;;;6.20;99.90;;;;;;4440435;32;20223;-77
2022/02/21 03:38:51;;;;;;;3.33;1.93;;;6.20;99.90;;;;;;4441954;32;20361;-77
2022/02/21 03:41:18;;;;;;;5.23;2.20;;;6.20;99.90;;;;;;4441175;32;20214;-77
2022/02/21 03:43:45;;;;;;;3.17;2.00;;;6.20;99.90;;;;;;4441684;32;20191;-77
2022/02/21 03:46:12;;;;;;;3.67;2.13;;;6.20;99.90;;;;;;4441176;32;20212;-77
2022/02/21 03:48:39;;;;;;;3.07;2.10;;;6.20;99.90;;;;;;4439974;32;20226;-77
2022/02/21 03:51:06;;;;;;;2.70;2.10;;;6.20;99.90;;;;;;4439758;32;20519;-77
2022/02/21 03:53:33;;;;;;;3.10;2.00;;;6.20;99.90;;;;;;4441209;32;20409;-77
2022/02/21 03:56:00;;;;;;;2.80;1.90;;;6.20;99.90;;;;;;4441368;32;20536;-77
2022/02/21 03:58:26;;;;;;;3.93;1.87;;;6.20;99.90;;;;;;4441296;32;20204;-77
2022/02/21 04:00:54;;;;;;;4.17;2.17;;;6.20;99.90;;;;;;4441086;32;20191;-77
2022/02/21 04:03:21;;;;;;;3.33;2.13;;;6.20;99.90;;;;;;4442506;32;20423;-77
2022/02/21 04:05:48;;;;;;;3.13;1.87;;;6.20;99.90;;;;;;4441604;32;20625;-77
2022/02/21 04:08:19;;;;;;;2.43;1.80;;;6.20;99.90;;;;;;4439320;32;20419;-76
2022/02/21 04:10:46;;;;;;;3.57;1.80;;;6.20;99.90;;;;;;4441468;32;20156;-77
2022/02/21 04:13:13;;;;;;;2.70;1.90;;;6.20;99.90;;;;;;4439514;32;20517;-77
2022/02/21 04:15:40;;;;;;;2.33;1.90;;;6.20;99.90;;;;;;4441477;32;20193;-77
2022/02/21 04:18:07;;;;;;;4.07;1.90;;;6.20;99.90;;;;;;4439762;32;20204;-76
2022/02/21 04:20:34;;;;;;;3.93;1.90;;;6.20;99.90;;;;;;4441249;32;20197;-76
2022/02/21 04:23:01;;;;;;;3.57;2.00;;;6.20;99.90;;;;;;4439331;32;20258;-77
2022/02/21 04:25:28;;;;;;;3.07;1.90;;;6.20;99.90;;;;;;4440759;32;20188;-77
2022/02/21 04:27:56;;;;;;;3.90;2.10;;;6.30;99.90;;;;;;4442072;32;20462;-77
2022/02/21 04:30:25;;;;;;;4.97;2.10;;;6.20;99.90;;;;;;4439373;32;20165;-77
2022/02/21 04:32:53;;;;;;;3.20;2.00;;;6.30;99.90;;;;;;4440480;32;20163;-76
2022/02/21 04:35:22;;;;;;;3.40;1.97;;;6.30;99.90;;;;;;4440624;32;20179;-76
2022/02/21 04:37:49;;;;;;;3.80;2.00;;;6.30;99.90;;;;;;4439380;32;20204;-76
2022/02/21 04:40:19;;;;;;;3.33;1.80;;;6.30;99.90;;;;;;4438985;32;20574;-77
2022/02/21 04:42:48;;;;;;;3.07;1.90;;;6.30;99.90;;;;;;4441369;32;20242;-76
2022/02/21 04:45:15;;;;;;;2.17;1.80;;;6.30;99.90;;;;;;4440688;32;20271;-76
2022/02/21 04:47:42;;;;;;;3.50;1.70;;;6.30;99.90;;;;;;4440542;32;20151;-77
2022/02/21 04:50:10;;;;;;;2.30;2.00;;;6.30;99.90;;;;;;4440469;32;20204;-77
2022/02/21 04:52:37;;;;;;;3.23;2.10;;;6.30;99.90;;;;;;4438788;32;20577;-77
2022/02/21 04:55:06;;;;;;;2.13;1.80;;;6.30;99.90;;;;;;4438837;32;20174;-77
2022/02/21 04:57:33;;;;;;;2.77;1.90;;;6.30;99.90;;;;;;4438686;32;20201;-78
2022/02/21 05:00:01;;;;;;;2.30;1.80;;;6.30;99.90;;;;;;4439046;32;20176;-78
2022/02/21 05:02:28;;;;;;;4.17;2.00;;;6.30;99.90;;;;;;4439643;32;20164;-78
2022/02/21 05:04:54;;;;;;;2.10;1.60;;;6.30;99.90;;;;;;4438632;32;20181;-78
2022/02/21 05:07:21;;;;;;;3.47;2.03;;;6.30;99.90;;;;;;4440259;32;20168;-78
2022/02/21 05:09:48;;;;;;;3.10;2.10;;;6.30;99.90;;;;;;4438386;32;20353;-78
2022/02/21 05:12:15;;;;;;;3.23;1.73;;;6.30;99.90;;;;;;4440238;32;20142;-77
2022/02/21 05:14:42;;;;;;;3.27;1.93;;;6.30;99.90;;;;;;4441577;32;20252;-77
2022/02/21 05:17:09;;;;;;;3.70;1.70;;;6.30;99.90;;;;;;4439954;32;20182;-77
2022/02/21 05:19:36;;;;;;;3.10;1.90;;;6.30;99.90;;;;;;4440037;32;20488;-77
2022/02/21 05:22:03;;;;;;;3.43;1.93;;;6.30;99.90;;;;;;4438236;32;20197;-77
2022/02/21 05:24:30;;;;;;;2.80;1.73;;;6.20;99.90;;;;;;4439741;32;20174;-78
2022/02/21 05:26:56;;;;;;;3.20;1.90;;;6.30;99.90;;;;;;4439056;32;20167;-77
2022/02/21 05:29:23;;;;;;;3.37;1.90;;;6.30;99.90;;;;;;4438415;32;20205;-77
2022/02/21 05:31:50;;;;;;;2.53;1.80;;;6.30;99.90;;;;;;4438146;32;20206;-77
2022/02/21 05:34:17;;;;;;;4.37;2.40;;;6.30;99.90;;;;;;4438292;32;20191;-76
2022/02/21 05:36:44;;;;;;;2.97;1.70;;;6.30;99.90;;;;;;4440028;32;20181;-76
2022/02/21 05:39:11;;;;;;;1.97;1.63;;;6.30;99.90;;;;;;4439700;32;20429;-76
2022/02/21 05:41:38;;;;;;;2.00;1.73;;;6.30;99.90;;;;;;4440793;32;20168;-76
2022/02/21 05:44:05;;;;;;;3.00;1.87;;;6.30;99.90;;;;;;4438192;32;20511;-76
2022/02/21 05:46:32;;;;;;;3.53;1.87;;;6.30;99.90;;;;;;4441245;32;20351;-77
2022/02/21 05:48:59;;;;;;;3.53;1.87;;;6.30;99.90;;;;;;4437957;32;20224;-76
2022/02/21 05:51:26;;;;;;;3.07;2.07;;;6.30;99.90;;;;;;4439856;32;20213;-76
2022/02/21 05:53:52;;;;;;;2.67;1.80;;;6.30;99.90;;;;;;4439716;32;20215;-77
2022/02/21 05:56:19;;;;;;;3.13;1.90;;;6.20;99.90;;;;;;4439444;32;20283;-76
2022/02/21 05:58:46;;;;;;;3.10;1.83;;;6.20;99.90;;;;;;4438284;32;20503;-77
2022/02/21 06:01:13;;;;;;;3.50;1.87;;;6.30;99.90;;;;;;4440342;32;20162;-78
2022/02/21 06:03:42;;;;;;;3.13;1.90;;;6.30;99.90;;;;;;4441069;32;20346;-76
2022/02/21 06:06:09;;;;;;;2.40;1.63;;;6.30;99.90;;;;;;4439441;32;20205;-76
2022/02/21 06:08:36;;;;;;;4.07;1.93;;;6.30;99.90;;;;;;4441062;32;20169;-75
2022/02/21 06:11:03;;;;;;;2.57;1.77;;;6.30;99.90;;;;;;4441922;32;20164;-76
2022/02/21 06:13:31;;;;;;;3.83;1.73;;;6.30;99.90;;;;;;4447517;32;20153;-75
2022/02/21 06:15:58;;;;;;;2.80;1.60;;;6.30;99.90;;;;;;4438004;32;20180;-76
2022/02/21 06:18:25;;;;;;;4.87;1.80;;;6.30;99.90;;;;;;4440152;32;20177;-76
2022/02/21 06:20:52;;;;;;;3.60;1.90;;;6.30;99.90;;;;;;4440930;32;20408;-76
2022/02/21 06:23:20;;;;;;;4.53;1.70;;;6.40;99.90;;;;;;4438551;32;20219;-78
2022/02/21 06:25:47;;;;;;;2.53;1.97;;;6.30;99.90;;;;;;4439197;32;20186;-77
2022/02/21 06:28:14;;;;;;;4.03;1.90;;;6.40;99.90;;;;;;4440664;32;20189;-77
2022/02/21 06:30:41;;;;;;;3.60;1.70;;;6.40;99.90;;;;;;4439535;32;20162;-77
2022/02/21 06:33:08;;;;;;;4.00;1.80;;;6.40;99.90;;;;;;4437329;32;20188;-77
2022/02/21 06:35:35;;;;;;;2.30;1.80;;;6.40;99.90;;;;;;4439623;32;20259;-76
2022/02/21 06:38:04;;;;;;;5.57;1.73;;;6.40;99.90;;;;;;4440811;32;20150;-76
2022/02/21 06:40:31;;;;;;;3.27;1.57;;;6.40;99.90;;;;;;4440528;32;20199;-76
2022/02/21 06:42:58;;;;;;;2.30;1.60;;;6.40;99.90;;;;;;4439345;32;20176;-76
2022/02/21 06:45:27;;;;;;;2.13;1.60;;;6.50;99.90;;;;;;4437428;32;20170;-76
2022/02/21 06:47:55;;;;;;;4.50;1.80;;;6.50;99.90;;;;;;4439702;32;20170;-77
2022/02/21 06:50:23;;;;;;;2.47;1.63;;;6.50;99.90;;;;;;4440059;32;20192;-77
2022/02/21 06:52:50;;;;;;;2.57;1.57;;;6.50;99.90;;;;;;4440627;32;20178;-76
2022/02/21 06:55:18;;;;;;;3.33;1.70;;;6.50;99.90;;;;;;4438347;32;20459;-76
2022/02/21 06:57:47;;;;;;;4.67;1.70;;;6.50;99.90;;;;;;4426902;32;20162;-78
2022/02/21 07:00:15;;;;;;;3.10;1.70;;;6.50;99.90;;;;;;4439802;32;20201;-77
2022/02/21 07:02:42;;;;;;;3.37;1.60;;;6.50;99.90;;;;;;4438512;32;20182;-77
2022/02/21 07:05:09;;;;;;;3.33;1.80;;;6.50;99.90;;;;;;4439257;32;20201;-77
2022/02/21 07:07:36;;;;;;;2.80;1.63;;;6.50;99.90;;;;;;4439029;32;20141;-77
2022/02/21 07:10:04;;;;;;;3.77;1.90;;;6.50;99.90;;;;;;4438820;32;20144;-77
2022/02/21 07:12:31;;;;;;;3.63;1.73;;;6.50;99.90;;;;;;4439243;32;20401;-78
2022/02/21 07:14:58;;;;;;;4.83;1.73;;;6.50;99.90;;;;;;4438918;32;20582;-77
2022/02/21 07:17:25;;;;;;;2.00;1.50;;;6.50;99.90;;;;;;4440562;32;20146;-77
2022/02/21 07:19:54;;;;;;;4.93;1.80;;;6.60;99.90;;;;;;4438171;32;20209;-77
2022/02/21 07:22:24;;;;;;;2.23;1.50;;;6.60;99.90;;;;;;4439856;32;20227;-77
2022/02/21 07:24:50;;;;;;;4.00;1.90;;;6.60;99.90;;;;;;4440865;32;20225;-77
2022/02/21 07:27:17;;;;;;;2.40;1.60;;;6.60;99.90;;;;;;4440263;32;20200;-77
2022/02/21 07:29:44;;;;;;;3.97;1.70;;;6.60;99.90;;;;;;4439818;32;20213;-77
2022/02/21 07:32:11;;;;;;;5.27;1.90;;;6.50;99.90;;;;;;4439584;32;20207;-77
2022/02/21 07:34:38;;;;;;;3.40;1.87;;;6.60;99.90;;;;;;4439811;32;20199;-76
2022/02/21 07:37:07;;;;;;;4.40;2.00;;;6.60;99.90;;;;;;4441530;32;20178;-77
2022/02/21 07:39:34;;;;;;;2.30;1.60;;;6.60;99.90;;;;;;4442653;32;20150;-77
2022/02/21 07:42:01;;;;;;;5.07;2.00;;;6.60;99.90;;;;;;4439923;32;20173;-78
2022/02/21 07:44:28;;;;;;;2.13;1.50;;;6.60;99.90;;;;;;4439413;32;20504;-78
2022/02/21 07:46:55;;;;;;;2.33;1.60;;;6.80;99.90;;;;;;4440697;32;20454;-78
2022/02/21 07:49:24;;;;;;;2.67;1.60;;;6.80;99.90;;;;;;4441771;32;20190;-78
2022/02/21 07:51:51;;;;;;;5.13;2.07;;;6.80;99.90;;;;;;4441268;32;20536;-78
2022/02/21 07:54:18;;;;;;;3.47;1.63;;;6.90;99.90;;;;;;4441591;32;20142;-78
2022/02/21 07:57:06;;;;;;;2.57;1.53;;;6.90;99.90;;;;;;4441663;32;20130;-78
2022/02/21 07:59:33;;;;;;;2.63;1.57;;;7.00;99.90;;;;;;4440581;32;20177;-78
2022/02/21 08:02:00;;;;;;;2.43;1.50;;;7.00;99.90;;;;;;4440194;32;20264;-77
2022/02/21 08:04:27;;;;;;;2.40;1.50;;;7.10;99.90;;;;;;4439507;32;20231;-77
2022/02/21 08:06:54;;;;;;;1.97;1.40;;;7.10;99.90;;;;;;4441513;32;20186;-77
2022/02/21 08:09:21;;;;;;;3.43;1.50;;;7.10;99.90;;;;;;4440827;32;20600;-78
2022/02/21 08:11:49;;;;;;;3.47;1.73;;;7.20;99.90;;;;;;4440580;32;20586;-78
2022/02/21 08:14:16;;;;;;;2.03;1.40;;;7.30;99.90;;;;;;4439521;32;20176;-79
2022/02/21 08:16:43;;;;;;;2.60;1.60;;;7.30;99.90;;;;;;4439355;32;20179;-79
2022/02/21 08:19:12;;;;;;;2.63;1.47;;;7.30;99.90;;;;;;4439743;32;20147;-79
2022/02/21 08:21:39;;;;;;;3.03;1.80;;;7.30;99.90;;;;;;4441200;32;20197;-79
2022/02/21 08:24:07;;;;;;;2.10;1.50;;;7.40;99.90;;;;;;4439749;32;20227;-79
2022/02/21 08:26:34;;;;;;;3.03;1.67;;;7.40;99.90;;;;;;4441365;32;20206;-79
2022/02/21 08:29:01;;;;;;;3.10;1.40;;;7.50;99.90;;;;;;4439224;32;20232;-79
2022/02/21 08:31:29;;;;;;;2.50;1.40;;;7.50;99.90;;;;;;4440252;32;20243;-79
2022/02/21 08:33:56;;;;;;;3.37;1.30;;;7.50;99.90;;;;;;4438630;32;20181;-78
2022/02/21 08:36:25;;;;;;;3.03;1.80;;;7.50;99.90;;;;;;4440824;32;20174;-79
2022/02/21 08:38:53;;;;;;;4.07;1.40;;;7.60;99.90;;;;;;4440688;32;20179;-79
2022/02/21 08:41:20;;;;;;;3.77;1.63;;;7.60;99.90;;;;;;4438905;32;20278;-79
2022/02/21 08:43:47;;;;;;;4.20;1.80;;;7.70;99.90;;;;;;4439682;32;20170;-79
2022/02/21 08:46:14;;;;;;;1.93;1.47;;;7.70;99.90;;;;;;4440707;32;20182;-80
2022/02/21 08:49:02;;;;;;;3.67;1.77;;;7.80;99.90;;;;;;4440456;32;20273;-80
2022/02/21 08:51:29;;;;;;;4.63;1.60;;;7.80;99.90;;;;;;4441369;32;20185;-81
2022/02/21 08:53:57;;;;;;;3.37;1.23;;;7.80;99.90;;;;;;4444155;32;20153;-81
2022/02/21 08:56:28;;;;;;;2.57;1.50;;;7.90;99.90;;;;;;4441741;32;20149;-81
2022/02/21 08:58:55;;;;;;;2.30;1.40;;;7.90;99.90;;;;;;4441060;32;20177;-81
2022/02/21 09:01:24;;;;;;;3.77;1.40;;;8.00;99.90;;;;;;4439406;32;20174;-81
2022/02/21 09:03:51;;;;;;;3.07;1.60;;;8.00;99.90;;;;;;4441726;32;20172;-81
2022/02/21 09:06:18;;;;;;;2.73;1.63;;;8.10;99.90;;;;;;4439503;32;20174;-81
2022/02/21 09:08:45;;;;;;;3.00;1.60;;;8.10;99.90;;;;;;4440005;32;20158;-80
2022/02/21 09:11:12;;;;;;;1.97;1.20;;;8.20;99.90;;;;;;4438471;32;20458;-80
2022/02/21 09:13:39;;;;;;;2.80;1.60;;;8.20;99.90;;;;;;4439697;32;20197;-80
2022/02/21 09:16:07;;;;;;;3.23;1.80;;;8.30;99.90;;;;;;4441059;32;20198;-80
2022/02/21 09:18:34;;;;;;;2.27;1.43;;;8.30;99.90;;;;;;4440462;32;20199;-80
2022/02/21 09:21:01;;;;;;;4.20;1.50;;;8.40;99.90;;;;;;4439416;32;20179;-79
2022/02/21 09:23:28;;;;;;;2.67;1.40;;;8.40;99.90;;;;;;4438793;32;20184;-81
2022/02/21 09:25:55;;;;;;;3.33;1.40;;;8.50;99.90;;;;;;4440016;32;20142;-80
2022/02/21 09:28:22;;;;;;;2.43;1.43;;;8.60;99.90;;;;;;4439364;32;20453;-80
2022/02/21 09:30:53;;;;;;;2.07;1.33;;;8.60;99.90;;;;;;4439705;32;20184;-80
2022/02/21 09:33:24;;;;;;;2.70;1.50;;;8.60;99.90;;;;;;4440015;32;20142;-80
2022/02/21 09:35:51;;;;;;;3.57;1.60;;;8.70;99.90;;;;;;4438907;32;20212;-80
2022/02/21 09:38:18;;;;;;;3.30;1.50;;;8.70;99.90;;;;;;4440695;32;20234;-79
2022/02/21 09:40:50;;;;;;;2.10;1.40;;;8.70;99.90;;;;;;4439493;32;20515;-81
2022/02/21 09:43:29;;;;;;;3.37;1.17;;;8.80;99.90;;;;;;4439648;32;20220;-80
2022/02/21 09:46:05;;;;;;;3.27;1.50;;;8.90;99.90;;;;;;4439640;32;20150;-79
2022/02/21 09:48:34;;;;;;;2.40;1.40;;;8.90;99.90;;;;;;4438968;32;20174;-80
2022/02/21 09:51:01;;;;;;;2.47;1.40;;;8.90;99.90;;;;;;4438618;32;20205;-79
2022/02/21 09:53:30;;;;;;;2.37;1.30;;;9.00;99.90;;;;;;4440190;32;20143;-80
2022/02/21 09:55:58;;;;;;;2.80;1.47;;;9.10;99.90;;;;;;4439758;32;20145;-80
2022/02/21 09:58:27;;;;;;;3.03;1.40;;;9.10;99.90;;;;;;4438184;32;20182;-80
2022/02/21 10:00:54;;;;;;;3.10;1.57;;;9.10;99.90;;;;;;4439381;32;20166;-80
2022/02/21 10:03:36;;;;;;;2.80;1.50;;;9.10;99.90;;;;;;4437925;32;20210;-80
2022/02/21 10:06:22;;;;;;;2.33;1.30;;;9.20;99.90;;;;;;4440302;32;20150;-80
2022/02/21 10:09:08;;;;;;;2.00;1.20;;;9.20;99.90;;;;;;4443133;32;20182;-77
2022/02/21 10:11:47;;;;;;;1.97;1.30;;;9.20;99.90;;;;;;4452332;32;20206;-78
2022/02/21 10:14:16;;;;;;;2.53;1.40;;;9.30;99.90;;;;;;4454750;32;20507;-76
2022/02/21 10:16:47;;;;;;;2.23;1.30;;;9.30;99.90;;;;;;4437402;32;20189;-76
2022/02/21 10:19:20;;;;;;;2.37;1.30;;;9.30;99.90;;;;;;4448311;32;20189;-76
2022/02/21 10:22:22;;;;;;;2.27;1.40;;;9.30;99.90;;;;;;4453123;32;20185;-75
2022/02/21 10:24:50;;;;;;;3.00;1.40;;;9.40;99.90;;;;;;4452836;32;20550;-77
2022/02/21 10:27:26;;;;;;;2.80;1.37;;;9.50;99.90;;;;;;4453265;32;20604;-76
2022/02/21 10:29:59;;;;;;;3.10;1.33;;;9.40;99.90;;;;;;4453629;32;20238;-75
2022/02/21 10:32:50;;;;;;;3.67;1.40;;;9.40;99.90;;;;;;4452581;32;20456;-74
2022/02/21 10:35:21;;;;;;;2.73;1.30;;;9.50;99.90;;;;;;4438316;32;20178;-75
2022/02/21 10:37:59;;;;;;;2.47;1.40;;;9.50;99.90;;;;;;4451803;32;20204;-75
2022/02/21 10:40:29;;;;;;;2.17;1.37;;;9.50;99.90;;;;;;4454678;32;20205;-74
2022/02/21 10:43:11;;;;;;;3.80;1.40;;;9.50;99.90;;;;;;4455499;32;20170;-74
2022/02/21 10:45:39;;;;;;;3.43;1.70;;;9.50;99.90;;;;;;4453304;32;20170;-75
2022/02/21 10:48:09;;;;;;;3.57;1.43;;;9.60;99.90;;;;;;4449665;32;20583;-77
2022/02/21 10:50:52;;;;;;;2.70;1.33;;;9.60;99.90;;;;;;4445786;32;20219;-75
2022/02/21 10:53:23;;;;;;;1.73;1.30;;;9.60;99.90;;;;;;4454324;32;20385;-75
2022/02/21 10:55:52;;;;;;;6.37;1.40;;;9.60;99.90;;;;;;4453219;32;20170;-75
2022/02/21 10:58:25;;;;;;;1.67;1.20;;;9.60;99.90;;;;;;4457455;32;20520;-74
2022/02/21 11:00:54;;;;;;;3.00;1.27;;;9.70;99.90;;;;;;4455539;32;20478;-75
2022/02/21 11:03:26;;;;;;;2.40;1.30;;;9.70;99.90;;;;;;4456452;32;20209;-75
2022/02/21 11:05:56;;;;;;;2.33;1.20;;;9.70;99.90;;;;;;4457502;32;20197;-75
2022/02/21 11:08:27;;;;;;;1.97;1.17;;;9.70;99.90;;;;;;4457267;32;20200;-75
2022/02/21 11:11:06;;;;;;;2.37;1.20;;;9.60;99.90;;;;;;4455370;32;20204;-75
2022/02/21 11:13:34;;;;;;;4.00;1.43;;;9.60;99.90;;;;;;4455650;32;20527;-75
2022/02/21 11:16:01;;;;;;;3.37;1.37;;;9.60;99.90;;;;;;4455422;32;20173;-75
2022/02/21 11:18:29;;;;;;;2.30;1.10;;;9.50;99.90;;;;;;4457215;32;20165;-75
2022/02/21 11:20:56;;;;;;;2.03;1.20;;;9.40;99.90;;;;;;4455629;32;20177;-75
2022/02/21 11:23:25;;;;;;;1.80;1.03;;;9.40;99.90;;;;;;4453308;32;20182;-75
2022/02/21 11:25:56;;;;;;;2.07;1.23;;;9.30;99.90;;;;;;4447811;32;20214;-75
2022/02/21 11:28:44;;;;;;;2.20;1.50;;;9.20;99.90;;;;;;4455548;32;20170;-75
2022/02/21 11:31:18;;;;;;;2.83;1.43;;;8.70;99.90;;;;;;4456621;32;20229;-75
2022/02/21 11:34:05;;;;;;;2.67;1.60;;;8.30;99.90;;;;;;4457344;32;20171;-73
2022/02/21 11:36:34;;;;;;;2.87;1.83;;;7.90;99.90;;;;;;4456874;32;20181;-74
2022/02/21 11:39:19;;;;;;;3.27;1.90;;;7.60;99.90;;;;;;4455250;32;20254;-74
2022/02/21 11:42:16;;;;;;;2.80;1.70;;;7.00;99.90;;;;;;4456497;32;20202;-74
2022/02/21 11:44:50;;;;;;;2.97;2.00;;;6.70;99.90;;;;;;4456616;32;20158;-75
2022/02/21 11:47:40;;;;;;;4.30;2.10;;;6.50;99.90;;;;;;4455501;32;20178;-75
2022/02/21 11:50:19;;;;;;;2.93;1.87;;;6.40;99.90;;;;;;4455730;32;20520;-75
2022/02/21 11:52:51;;;;;;;3.97;2.10;;;6.40;99.90;;;;;;4456292;32;20427;-74
2022/02/21 11:55:35;;;;;;;3.20;2.10;;;6.30;99.90;;;;;;4449078;32;20180;-74
2022/02/21 11:58:11;;;;;;;4.17;2.10;;;6.30;99.90;;;;;;4449202;32;20248;-74
2022/02/21 12:00:40;;;;;;;3.03;1.90;;;6.30;99.90;;;;;;4439748;32;20199;-74
2022/02/21 12:03:08;;;;;;;3.80;1.63;;;6.40;99.90;;;;;;4447566;32;20206;-74
2022/02/21 12:05:35;;;;;;;2.83;2.00;;;6.40;99.90;;;;;;4456923;32;20165;-74
2022/02/21 12:08:31;;;;;;;5.00;2.00;;;6.40;99.90;;;;;;4456205;32;20218;-74
2022/02/21 12:11:03;;;;;;;3.63;2.00;;;6.40;99.90;;;;;;4455921;32;20210;-74
2022/02/21 12:13:32;;;;;;;3.67;1.97;;;6.40;99.90;;;;;;4455669;32;20191;-73
2022/02/21 12:16:09;;;;;;;2.30;1.60;;;6.30;99.90;;;;;;4440157;32;20179;-74
2022/02/21 12:18:44;;;;;;;3.27;1.73;;;6.30;99.90;;;;;;4442224;32;20174;-74
2022/02/21 12:21:29;;;;;;;3.40;1.57;;;6.30;99.90;;;;;;4457280;32;20339;-74
2022/02/21 12:23:57;;;;;;;2.27;1.50;;;6.30;99.90;;;;;;4456037;32;20203;-74
2022/02/21 12:26:37;;;;;;;2.97;1.80;;;6.30;99.90;;;;;;4454228;32;20174;-73
2022/02/21 12:29:19;;;;;;;3.50;1.53;;;6.30;99.90;;;;;;4454591;32;20233;-73
2022/02/21 12:31:58;;;;;;;2.47;1.40;;;6.20;99.90;;;;;;4455344;32;20199;-73
2022/02/21 12:34:29;;;;;;;2.20;1.50;;;6.30;99.90;;;;;;4451264;32;20547;-74
2022/02/21 12:36:58;;;;;;;4.23;1.77;;;6.30;99.90;;;;;;4450668;32;20476;-73
2022/02/21 12:39:27;;;;;;;2.17;1.60;;;6.30;99.90;;;;;;4457386;32;20187;-72
2022/02/21 12:41:54;;;;;;;2.63;1.70;;;6.30;99.90;;;;;;4456004;32;20208;-73
2022/02/21 12:44:21;;;;;;;2.27;1.60;;;6.40;99.90;;;;;;4454411;32;20248;-73
2022/02/21 12:46:54;;;;;;;2.73;1.70;;;6.50;99.90;;;;;;4453991;32;20203;-74
2022/02/21 12:49:48;;;;;;;1.77;1.40;;;6.50;99.90;;;;;;4455986;32;20201;-74
2022/02/21 12:52:16;;;;;;;3.73;1.60;;;6.60;99.90;;;;;;4378427;32;20194;-73
2022/02/21 12:54:58;;;;;;;3.70;1.50;;;6.90;99.90;;;;;;4376822;32;20187;-74
2022/02/21 12:57:27;;;;;;;3.97;1.50;;;7.00;99.90;;;;;;4372479;32;20522;-74
2022/02/21 12:59:56;;;;;;;3.63;1.60;;;7.10;99.90;;;;;;4378308;32;20229;-73
2022/02/21 13:02:23;;;;;;;2.63;1.70;;;7.30;99.90;;;;;;4392164;32;20525;-75
2022/02/21 13:04:50;;;;;;;3.00;1.30;;;7.40;99.90;;;;;;4376486;32;20743;-73
2022/02/21 13:07:18;;;;;;;2.07;1.33;;;7.50;99.90;;;;;;4373123;32;20250;-73